sensor_id;sensor_type;location;lat;lon;timestamp;pressure;altitude;pressure_sealevel;temperature;humidity
5753;BME280;2901;42.140;24.760;2023-01-15T00:00:02;100039.44;;;8.23;100.00
5753;BME280;2901;42.140;24.760;2023-01-15T00:02:29;100032.56;;;8.24;100.00
5753;BME280;2901;42.140;24.760;2023-01-15T00:04:55;100040.31;;;8.22;100.00
5753;BME280;2901;42.140;24.760;2023-01-15T00:07:21;100042.94;;;8.27;100.00
5753;BME280;2901;42.140;24.760;2023-01-15T00:09:46;100039.41;;;8.20;100.00
5753;BME280;2901;42.140;24.760;2023-01-15T00:12:11;100037.69;;;8.19;100.00
5753;BME280;2901;42.140;24.760;2023-01-15T00:14:37;100036.03;;;8.24;100.00
5753;BME280;2901;42.140;24.760;2023-01-15T00:17:02;100048.06;;;8.22;100.00
5753;BME280;2901;42.140;24.760;2023-01-15T00:19:28;100046.28;;;8.18;100.00
5753;BME280;2901;42.140;24.760;2023-01-15T00:21:53;100045.47;;;8.22;100.00
5753;BME280;2901;42.140;24.760;2023-01-15T00:24:18;100042.00;;;8.20;100.00
5753;BME280;2901;42.140;24.760;2023-01-15T00:27:02;100044.66;;;8.26;100.00
5753;BME280;2901;42.140;24.760;2023-01-15T00:29:46;100044.59;;;8.22;100.00
5753;BME280;2901;42.140;24.760;2023-01-15T00:32:11;100034.28;;;8.23;100.00
5753;BME280;2901;42.140;24.760;2023-01-15T00:34:37;100029.09;;;8.20;100.00
5753;BME280;2901;42.140;24.760;2023-01-15T00:37:02;100040.34;;;8.27;100.00
5753;BME280;2901;42.140;24.760;2023-01-15T00:39:28;100043.03;;;8.31;100.00
5753;BME280;2901;42.140;24.760;2023-01-15T00:41:54;100048.19;;;8.31;100.00
5753;BME280;2901;42.140;24.760;2023-01-15T00:44:20;100049.78;;;8.25;100.00
5753;BME280;2901;42.140;24.760;2023-01-15T00:46:46;100024.66;;;8.10;100.00
5753;BME280;2901;42.140;24.760;2023-01-15T00:49:11;100044.53;;;8.17;100.00
5753;BME280;2901;42.140;24.760;2023-01-15T00:51:37;100043.72;;;8.20;100.00
5753;BME280;2901;42.140;24.760;2023-01-15T00:54:03;100039.34;;;8.14;100.00
5753;BME280;2901;42.140;24.760;2023-01-15T00:56:28;100035.09;;;8.18;100.00
5753;BME280;2901;42.140;24.760;2023-01-15T00:58:54;100038.59;;;8.24;100.00
5753;BME280;2901;42.140;24.760;2023-01-15T01:01:20;100038.59;;;8.24;100.00
5753;BME280;2901;42.140;24.760;2023-01-15T01:03:45;100032.53;;;8.19;100.00
5753;BME280;2901;42.140;24.760;2023-01-15T01:06:14;100035.09;;;8.16;100.00
5753;BME280;2901;42.140;24.760;2023-01-15T01:08:40;100030.75;;;8.15;100.00
5753;BME280;2901;42.140;24.760;2023-01-15T01:11:08;100029.00;;;8.11;100.00
5753;BME280;2901;42.140;24.760;2023-01-15T01:13:35;100029.94;;;8.18;100.00
5753;BME280;2901;42.140;24.760;2023-01-15T01:16:02;100037.72;;;8.22;100.00
5753;BME280;2901;42.140;24.760;2023-01-15T01:18:27;100035.13;;;8.19;100.00
5753;BME280;2901;42.140;24.760;2023-01-15T01:20:53;100031.63;;;8.16;100.00
5753;BME280;2901;42.140;24.760;2023-01-15T01:23:19;100033.25;;;8.06;100.00
5753;BME280;2901;42.140;24.760;2023-01-15T01:25:44;100035.72;;;8.00;100.00
5753;BME280;2901;42.140;24.760;2023-01-15T01:28:10;100028.91;;;8.05;100.00
5753;BME280;2901;42.140;24.760;2023-01-15T01:30:37;100035.03;;;8.12;100.00
5753;BME280;2901;42.140;24.760;2023-01-15T01:33:02;100027.31;;;8.13;100.00
5753;BME280;2901;42.140;24.760;2023-01-15T01:35:28;100032.53;;;8.19;100.00
5753;BME280;2901;42.140;24.760;2023-01-15T01:37:53;100030.69;;;8.09;100.00
5753;BME280;2901;42.140;24.760;2023-01-15T01:40:19;100024.66;;;8.10;100.00
5753;BME280;2901;42.140;24.760;2023-01-15T01:42:44;100028.97;;;8.08;100.00
5753;BME280;2901;42.140;24.760;2023-01-15T01:45:21;100021.22;;;8.08;100.00
5753;BME280;2901;42.140;24.760;2023-01-15T01:47:50;100025.63;;;8.18;100.00
5753;BME280;2901;42.140;24.760;2023-01-15T01:50:16;100024.81;;;8.19;100.00
5753;BME280;2901;42.140;24.760;2023-01-15T01:53:07;100009.16;;;8.06;100.00
5753;BME280;2901;42.140;24.760;2023-01-15T01:55:35;100019.66;;;8.19;100.00
5753;BME280;2901;42.140;24.760;2023-01-15T01:58:03;100020.50;;;8.21;100.00
5753;BME280;2901;42.140;24.760;2023-01-15T02:00:32;100022.22;;;8.21;100.00
5753;BME280;2901;42.140;24.760;2023-01-15T02:02:58;100015.28;;;8.17;100.00
5753;BME280;2901;42.140;24.760;2023-01-15T02:05:31;100022.22;;;8.21;100.00
5753;BME280;2901;42.140;24.760;2023-01-15T02:07:57;100026.50;;;8.19;100.00
5753;BME280;2901;42.140;24.760;2023-01-15T02:10:23;100013.59;;;8.16;100.00
5753;BME280;2901;42.140;24.760;2023-01-15T02:15:47;100020.41;;;8.12;100.00
5753;BME280;2901;42.140;24.760;2023-01-15T02:18:42;100020.41;;;8.12;100.00
5753;BME280;2901;42.140;24.760;2023-01-15T02:21:23;100010.06;;;8.09;100.00
5753;BME280;2901;42.140;24.760;2023-01-15T02:24:12;100016.16;;;8.16;100.00
5753;BME280;2901;42.140;24.760;2023-01-15T02:29:53;100015.19;;;8.08;100.00
5753;BME280;2901;42.140;24.760;2023-01-15T02:32:34;100011.75;;;8.07;100.00
5753;BME280;2901;42.140;24.760;2023-01-15T02:35:28;100011.75;;;8.07;100.00
5753;BME280;2901;42.140;24.760;2023-01-15T02:37:55;100004.88;;;8.06;100.00
5753;BME280;2901;42.140;24.760;2023-01-15T02:40:24;100014.31;;;8.06;100.00
5753;BME280;2901;42.140;24.760;2023-01-15T02:42:51;100013.38;;;7.99;100.00
5753;BME280;2901;42.140;24.760;2023-01-15T02:45:24;100011.72;;;8.03;100.00
5753;BME280;2901;42.140;24.760;2023-01-15T02:47:53;100007.47;;;8.08;100.00
5753;BME280;2901;42.140;24.760;2023-01-15T02:50:24;100014.38;;;8.12;100.00
5753;BME280;2901;42.140;24.760;2023-01-15T02:52:55;100010.06;;;8.09;100.00
5753;BME280;2901;42.140;24.760;2023-01-15T02:55:25;100004.91;;;8.09;100.00
5753;BME280;2901;42.140;24.760;2023-01-15T02:57:56;100010.09;;;8.14;100.00
5753;BME280;2901;42.140;24.760;2023-01-15T03:00:25;100013.59;;;8.16;100.00
5753;BME280;2901;42.140;24.760;2023-01-15T03:03:24;100011.03;;;8.20;100.00
5753;BME280;2901;42.140;24.760;2023-01-15T03:06:27;100016.16;;;8.17;100.00
5753;BME280;2901;42.140;24.760;2023-01-15T03:08:56;100013.56;;;8.14;100.00
5753;BME280;2901;42.140;24.760;2023-01-15T03:11:22;100025.50;;;8.06;100.00
5753;BME280;2901;42.140;24.760;2023-01-15T03:13:50;100008.38;;;8.14;100.00
5753;BME280;2901;42.140;24.760;2023-01-15T03:16:35;100003.25;;;8.17;100.00
5753;BME280;2901;42.140;24.760;2023-01-15T03:19:15;100007.50;;;8.09;100.00
5753;BME280;2901;42.140;24.760;2023-01-15T03:21:54;100004.91;;;8.11;100.00
5753;BME280;2901;42.140;24.760;2023-01-15T03:24:28;100007.53;;;8.12;100.00
5753;BME280;2901;42.140;24.760;2023-01-15T03:26:55;100006.59;;;8.06;100.00
5753;BME280;2901;42.140;24.760;2023-01-15T03:29:22;100006.59;;;8.06;100.00
5753;BME280;2901;42.140;24.760;2023-01-15T03:31:50;100011.63;;;7.98;100.00
5753;BME280;2901;42.140;24.760;2023-01-15T03:34:16;100000.50;;;8.01;100.00
5753;BME280;2901;42.140;24.760;2023-01-15T03:36:41;100001.41;;;8.04;100.00
5753;BME280;2901;42.140;24.760;2023-01-15T03:39:08;99997.94;;;8.02;100.00
5753;BME280;2901;42.140;24.760;2023-01-15T03:41:51;99997.00;;;7.97;100.00
5753;BME280;2901;42.140;24.760;2023-01-15T03:44:29;100005.63;;;7.96;100.00
5753;BME280;2901;42.140;24.760;2023-01-15T03:55:26;99999.47;;;7.88;100.00
5753;BME280;2901;42.140;24.760;2023-01-15T03:58:01;100000.41;;;7.93;100.00
5753;BME280;2901;42.140;24.760;2023-01-15T04:00:38;100011.63;;;7.98;100.00
5753;BME280;2901;42.140;24.760;2023-01-15T04:03:07;100009.94;;;8.00;100.00
5753;BME280;2901;42.140;24.760;2023-01-15T04:05:36;100013.34;;;7.96;100.00
5753;BME280;2901;42.140;24.760;2023-01-15T04:08:03;100011.63;;;7.98;100.00
5753;BME280;2901;42.140;24.760;2023-01-15T04:10:28;100006.47;;;7.98;100.00
5753;BME280;2901;42.140;24.760;2023-01-15T04:12:54;100017.69;;;8.02;100.00
5753;BME280;2901;42.140;24.760;2023-01-15T04:15:19;100013.41;;;8.02;100.00
5753;BME280;2901;42.140;24.760;2023-01-15T04:17:45;100015.09;;;7.99;100.00
5753;BME280;2901;42.140;24.760;2023-01-15T04:20:11;100020.25;;;8.00;100.00
5753;BME280;2901;42.140;24.760;2023-01-15T04:22:36;100014.22;;;7.98;100.00
5753;BME280;2901;42.140;24.760;2023-01-15T04:25:03;100019.41;;;8.00;100.00
5753;BME280;2901;42.140;24.760;2023-01-15T04:27:29;100022.03;;;8.04;100.00
5753;BME280;2901;42.140;24.760;2023-01-15T04:29:54;100018.50;;;7.96;100.00
5753;BME280;2901;42.140;24.760;2023-01-15T04:32:20;100025.34;;;7.93;100.00
5753;BME280;2901;42.140;24.760;2023-01-15T04:34:45;100024.44;;;7.89;100.00
5753;BME280;2901;42.140;24.760;2023-01-15T04:37:11;100034.59;;;7.78;100.00
5753;BME280;2901;42.140;24.760;2023-01-15T04:39:37;100016.41;;;7.68;100.00
5753;BME280;2901;42.140;24.760;2023-01-15T04:42:02;100026.97;;;7.86;100.00
5753;BME280;2901;42.140;24.760;2023-01-15T04:44:47;100034.75;;;7.91;100.00
5753;BME280;2901;42.140;24.760;2023-01-15T04:47:12;100033.06;;;7.94;100.00
5753;BME280;2901;42.140;24.760;2023-01-15T04:49:37;100039.16;;;7.99;100.00
5753;BME280;2901;42.140;24.760;2023-01-15T04:52:03;100036.66;;;8.07;100.00
5753;BME280;2901;42.140;24.760;2023-01-15T04:54:28;100030.69;;;8.11;100.00
5753;BME280;2901;42.140;24.760;2023-01-15T04:56:54;100036.66;;;8.07;100.00
5753;BME280;2901;42.140;24.760;2023-01-15T04:59:22;100040.06;;;8.04;100.00
5753;BME280;2901;42.140;24.760;2023-01-15T05:01:49;100033.16;;;7.99;100.00
5753;BME280;2901;42.140;24.760;2023-01-15T05:04:14;100039.91;;;7.91;100.00
5753;BME280;2901;42.140;24.760;2023-01-15T05:06:40;100039.00;;;7.87;100.00
5753;BME280;2901;42.140;24.760;2023-01-15T05:09:05;100039.00;;;7.87;100.00
5753;BME280;2901;42.140;24.760;2023-01-15T05:11:34;100044.16;;;7.87;100.00
5753;BME280;2901;42.140;24.760;2023-01-15T05:13:59;100042.50;;;7.92;100.00
5753;BME280;2901;42.140;24.760;2023-01-15T05:16:26;100040.81;;;7.94;100.00
5753;BME280;2901;42.140;24.760;2023-01-15T05:18:53;100040.88;;;8.00;100.00
5753;BME280;2901;42.140;24.760;2023-01-15T05:21:24;100053.75;;;7.97;100.00
5753;BME280;2901;42.140;24.760;2023-01-15T05:23:52;100045.13;;;7.95;100.00
5753;BME280;2901;42.140;24.760;2023-01-15T05:26:19;100045.88;;;7.88;100.00
5753;BME280;2901;42.140;24.760;2023-01-15T05:28:45;100054.53;;;7.90;100.00
5753;BME280;2901;42.140;24.760;2023-01-15T05:31:12;100048.44;;;7.85;100.00
5753;BME280;2901;42.140;24.760;2023-01-15T05:33:38;100051.84;;;7.82;100.00
5753;BME280;2901;42.140;24.760;2023-01-15T05:36:09;100049.19;;;7.78;100.00
5753;BME280;2901;42.140;24.760;2023-01-15T05:38:36;100053.25;;;7.59;100.00
5753;BME280;2901;42.140;24.760;2023-01-15T05:41:06;100060.13;;;7.62;100.00
5753;BME280;2901;42.140;24.760;2023-01-15T05:44:01;100060.13;;;7.62;100.00
5753;BME280;2901;42.140;24.760;2023-01-15T05:46:27;100052.41;;;7.62;100.00
5753;BME280;2901;42.140;24.760;2023-01-15T05:48:52;100057.50;;;7.57;100.00
5753;BME280;2901;42.140;24.760;2023-01-15T05:51:18;100065.38;;;7.66;100.00
5753;BME280;2901;42.140;24.760;2023-01-15T05:53:43;100062.78;;;7.66;100.00
5753;BME280;2901;42.140;24.760;2023-01-15T05:56:09;100060.22;;;7.66;100.00
5753;BME280;2901;42.140;24.760;2023-01-15T05:58:35;100070.59;;;7.74;100.00
5753;BME280;2901;42.140;24.760;2023-01-15T06:01:05;100062.78;;;7.66;100.00
5753;BME280;2901;42.140;24.760;2023-01-15T06:03:31;100062.00;;;7.72;100.00
5753;BME280;2901;42.140;24.760;2023-01-15T06:05:56;100064.66;;;7.78;100.00
5753;BME280;2901;42.140;24.760;2023-01-15T06:08:22;100062.84;;;7.71;100.00
5753;BME280;2901;42.140;24.760;2023-01-15T06:10:48;100058.59;;;7.73;100.00
5753;BME280;2901;42.140;24.760;2023-01-15T06:13:15;100065.25;;;7.59;100.00
5753;BME280;2901;42.140;24.760;2023-01-15T06:15:42;100062.59;;;7.53;100.00
5753;BME280;2901;42.140;24.760;2023-01-15T06:18:07;100056.41;;;7.40;100.00
5753;BME280;2901;42.140;24.760;2023-01-15T06:20:40;100063.34;;;7.44;100.00
5753;BME280;2901;42.140;24.760;2023-01-15T06:23:07;100056.34;;;7.37;100.00
5753;BME280;2901;42.140;24.760;2023-01-15T06:25:34;100058.81;;;7.29;100.00
5753;BME280;2901;42.140;24.760;2023-01-15T06:28:04;100062.22;;;7.28;100.00
5753;BME280;2901;42.140;24.760;2023-01-15T06:30:30;100059.63;;;7.27;100.00
5753;BME280;2901;42.140;24.760;2023-01-15T06:32:55;100057.94;;;7.29;100.00
5753;BME280;2901;42.140;24.760;2023-01-15T06:35:20;100060.41;;;7.24;100.00
5753;BME280;2901;42.140;24.760;2023-01-15T06:37:48;100066.41;;;7.22;100.00
5753;BME280;2901;42.140;24.760;2023-01-15T06:40:13;100062.03;;;7.16;100.00
5753;BME280;2901;42.140;24.760;2023-01-15T06:42:39;100072.28;;;7.13;100.00
5753;BME280;2901;42.140;24.760;2023-01-15T06:45:22;100070.59;;;7.15;100.00
5753;BME280;2901;42.140;24.760;2023-01-15T06:48:06;100072.31;;;7.16;100.00
5753;BME280;2901;42.140;24.760;2023-01-15T06:50:32;100075.88;;;7.23;100.00
5753;BME280;2901;42.140;24.760;2023-01-15T06:52:57;100065.47;;;7.18;100.00
5753;BME280;2901;42.140;24.760;2023-01-15T06:55:22;100070.66;;;7.21;100.00
5753;BME280;2901;42.140;24.760;2023-01-15T06:57:48;100072.41;;;7.22;100.00
5753;BME280;2901;42.140;24.760;2023-01-15T07:00:14;100075.03;;;7.25;100.00
5753;BME280;2901;42.140;24.760;2023-01-15T07:02:39;100075.06;;;7.27;100.00
5753;BME280;2901;42.140;24.760;2023-01-15T07:05:06;100077.66;;;7.28;100.00
5753;BME280;2901;42.140;24.760;2023-01-15T07:07:32;100061.28;;;7.23;100.00
5753;BME280;2901;42.140;24.760;2023-01-15T07:09:58;100081.03;;;7.24;100.00
5753;BME280;2901;42.140;24.760;2023-01-15T07:12:23;100077.63;;;7.25;100.00
5753;BME280;2901;42.140;24.760;2023-01-15T07:14:49;100078.53;;;7.29;100.00
5753;BME280;2901;42.140;24.760;2023-01-15T07:17:14;100082.06;;;7.34;100.00
5753;BME280;2901;42.140;24.760;2023-01-15T07:19:40;100083.78;;;7.34;100.00
5753;BME280;2901;42.140;24.760;2023-01-15T07:22:06;100083.81;;;7.38;100.00
5753;BME280;2901;42.140;24.760;2023-01-15T07:24:32;100081.28;;;7.40;100.00
5753;BME280;2901;42.140;24.760;2023-01-15T07:26:58;100084.81;;;7.48;100.00
5753;BME280;2901;42.140;24.760;2023-01-15T07:29:23;100077.19;;;7.52;100.00
5753;BME280;2901;42.140;24.760;2023-01-15T07:31:49;100089.13;;;7.47;100.00
5753;BME280;2901;42.140;24.760;2023-01-15T07:34:15;100081.31;;;7.43;100.00
5753;BME280;2901;42.140;24.760;2023-01-15T07:36:40;100096.00;;;7.48;100.00
5753;BME280;2901;42.140;24.760;2023-01-15T07:39:08;100087.41;;;7.46;100.00
5753;BME280;2901;42.140;24.760;2023-01-15T07:41:34;100093.56;;;7.56;100.00
5753;BME280;2901;42.140;24.760;2023-01-15T07:44:18;100090.09;;;7.55;100.00
5753;BME280;2901;42.140;24.760;2023-01-15T07:47:06;100090.16;;;7.57;100.00
5753;BME280;2901;42.140;24.760;2023-01-15T07:49:53;100090.31;;;7.69;100.00
5753;BME280;2901;42.140;24.760;2023-01-15T07:52:20;100087.03;;;7.79;100.00
5753;BME280;2901;42.140;24.760;2023-01-15T07:54:47;100086.16;;;7.78;100.00
5753;BME280;2901;42.140;24.760;2023-01-15T07:57:16;100087.09;;;7.85;100.00
5753;BME280;2901;42.140;24.760;2023-01-15T07:59:42;100100.03;;;7.87;100.00
5753;BME280;2901;42.140;24.760;2023-01-15T08:02:07;100101.97;;;8.03;100.00
5753;BME280;2901;42.140;24.760;2023-01-15T08:04:33;100096.09;;;8.13;100.00
5753;BME280;2901;42.140;24.760;2023-01-15T08:07:00;100097.94;;;8.24;100.00
5753;BME280;2901;42.140;24.760;2023-01-15T08:09:26;100106.66;;;8.31;100.00
5753;BME280;2901;42.140;24.760;2023-01-15T08:11:52;100097.31;;;8.39;100.00
5753;BME280;2901;42.140;24.760;2023-01-15T08:14:35;100111.81;;;8.31;100.00
5753;BME280;2901;42.140;24.760;2023-01-15T08:17:19;100106.50;;;8.23;100.00
5753;BME280;2901;42.140;24.760;2023-01-15T08:19:45;100098.97;;;8.36;100.00
5753;BME280;2901;42.140;24.760;2023-01-15T08:22:10;100101.69;;;8.46;100.00
5753;BME280;2901;42.140;24.760;2023-01-15T08:24:36;100101.75;;;8.54;100.00
5753;BME280;2901;42.140;24.760;2023-01-15T08:27:02;100103.59;;;8.62;100.00
5753;BME280;2901;42.140;24.760;2023-01-15T08:29:27;100100.25;;;8.74;100.00
5753;BME280;2901;42.140;24.760;2023-01-15T08:31:53;100095.31;;;8.92;100.00
5753;BME280;2901;42.140;24.760;2023-01-15T08:34:18;100108.38;;;9.09;100.00
5753;BME280;2901;42.140;24.760;2023-01-15T08:36:44;100105.78;;;9.10;100.00
5753;BME280;2901;42.140;24.760;2023-01-15T08:39:10;100109.16;;;9.03;100.00
5753;BME280;2901;42.140;24.760;2023-01-15T08:41:35;100103.09;;;8.98;100.00
5753;BME280;2901;42.140;24.760;2023-01-15T08:44:01;100101.41;;;9.02;100.00
5753;BME280;2901;42.140;24.760;2023-01-15T08:46:26;100100.53;;;8.98;100.00
5753;BME280;2901;42.140;24.760;2023-01-15T08:48:51;100104.06;;;9.09;100.00
5753;BME280;2901;42.140;24.760;2023-01-15T08:51:20;100100.69;;;9.18;100.00
5753;BME280;2901;42.140;24.760;2023-01-15T08:53:45;100097.25;;;9.17;100.00
5753;BME280;2901;42.140;24.760;2023-01-15T08:56:12;100092.06;;;9.17;100.00
5753;BME280;2901;42.140;24.760;2023-01-15T08:58:38;100089.50;;;9.19;100.00
5753;BME280;2901;42.140;24.760;2023-01-15T09:01:08;100087.06;;;9.38;100.00
5753;BME280;2901;42.140;24.760;2023-01-15T09:03:34;100094.03;;;9.44;100.00
5753;BME280;2901;42.140;24.760;2023-01-15T09:06:01;100099.09;;;9.33;100.00
5753;BME280;2901;42.140;24.760;2023-01-15T09:08:27;100090.34;;;9.16;100.00
5753;BME280;2901;42.140;24.760;2023-01-15T09:11:00;100088.53;;;9.09;100.00
5753;BME280;2901;42.140;24.760;2023-01-15T09:13:27;100092.78;;;9.03;100.00
5753;BME280;2901;42.140;24.760;2023-01-15T09:15:53;100089.06;;;8.73;100.00
5753;BME280;2901;42.140;24.760;2023-01-15T09:18:18;100090.91;;;8.85;100.00
5753;BME280;2901;42.140;24.760;2023-01-15T09:20:48;100086.78;;;9.02;100.00
5753;BME280;2901;42.140;24.760;2023-01-15T09:23:14;100071.38;;;9.14;100.00
5753;BME280;2901;42.140;24.760;2023-01-15T09:25:39;100080.06;;;9.22;100.00
5753;BME280;2901;42.140;24.760;2023-01-15T09:28:06;100074.06;;;9.25;100.00
5753;BME280;2901;42.140;24.760;2023-01-15T09:30:31;100074.91;;;9.25;100.00
5753;BME280;2901;42.140;24.760;2023-01-15T09:32:57;100074.00;;;9.20;100.00
5753;BME280;2901;42.140;24.760;2023-01-15T09:35:23;100069.69;;;9.19;100.00
5753;BME280;2901;42.140;24.760;2023-01-15T09:37:51;100070.66;;;9.32;100.00
5753;BME280;2901;42.140;24.760;2023-01-15T09:40:39;100056.03;;;9.35;100.00
5753;BME280;2901;42.140;24.760;2023-01-15T09:46:17;100059.47;;;9.31;100.00
5753;BME280;2901;42.140;24.760;2023-01-15T09:51:47;100058.66;;;9.37;100.00
5753;BME280;2901;42.140;24.760;2023-01-15T09:56:48;100057.84;;;9.49;100.00
5753;BME280;2901;42.140;24.760;2023-01-15T09:59:41;100062.91;;;9.30;100.00
5753;BME280;2901;42.140;24.760;2023-01-15T10:02:29;100043.94;;;9.28;100.00
5753;BME280;2901;42.140;24.760;2023-01-15T10:05:15;100045.78;;;9.45;100.00
5753;BME280;2901;42.140;24.760;2023-01-15T10:07:58;100038.84;;;9.42;100.00
5753;BME280;2901;42.140;24.760;2023-01-15T10:10:32;100035.28;;;9.23;100.00
5753;BME280;2901;42.140;24.760;2023-01-15T10:13:06;100036.09;;;9.19;100.00
5753;BME280;2901;42.140;24.760;2023-01-15T10:15:40;100023.16;;;9.15;100.00
5753;BME280;2901;42.140;24.760;2023-01-15T10:18:17;100029.09;;;9.03;100.00
5753;BME280;2901;42.140;24.760;2023-01-15T10:20:50;100017.84;;;8.97;100.00
5753;BME280;2901;42.140;24.760;2023-01-15T10:26:17;100011.81;;;8.95;100.00
5753;BME280;2901;42.140;24.760;2023-01-15T10:31:43;99991.38;;;9.29;100.00
5753;BME280;2901;42.140;24.760;2023-01-15T10:39:39;99974.25;;;9.44;100.00
5753;BME280;2901;42.140;24.760;2023-01-15T10:42:29;99978.53;;;9.37;100.00
5753;BME280;2901;42.140;24.760;2023-01-15T10:45:03;99976.88;;;9.48;100.00
5753;BME280;2901;42.140;24.760;2023-01-15T10:47:34;99983.69;;;9.38;100.00
5753;BME280;2901;42.140;24.760;2023-01-15T10:50:22;99975.13;;;9.44;100.00
5753;BME280;2901;42.140;24.760;2023-01-15T10:52:56;99974.22;;;9.39;100.00
5753;BME280;2901;42.140;24.760;2023-01-15T10:55:35;99969.16;;;9.54;100.00
5753;BME280;2901;42.140;24.760;2023-01-15T10:58:36;99958.75;;;9.47;100.00
5753;BME280;2901;42.140;24.760;2023-01-15T11:01:09;99953.63;;;9.53;100.00
5753;BME280;2901;42.140;24.760;2023-01-15T11:03:40;99960.53;;;9.55;100.00
5753;BME280;2901;42.140;24.760;2023-01-15T11:06:10;99952.75;;;9.51;100.00
5753;BME280;2901;42.140;24.760;2023-01-15T11:08:39;99947.66;;;9.69;100.00
5753;BME280;2901;42.140;24.760;2023-01-15T11:11:18;99942.47;;;9.69;100.00
5753;BME280;2901;42.140;24.760;2023-01-15T11:13:52;99940.78;;;9.72;100.00
5753;BME280;2901;42.140;24.760;2023-01-15T11:16:37;99941.59;;;9.55;100.00
5753;BME280;2901;42.140;24.760;2023-01-15T11:19:28;99938.13;;;9.59;100.00
5753;BME280;2901;42.140;24.760;2023-01-15T11:22:15;99939.94;;;9.73;100.00
5753;BME280;2901;42.140;24.760;2023-01-15T11:25:00;99929.59;;;9.73;100.00
5753;BME280;2901;42.140;24.760;2023-01-15T11:27:32;99928.75;;;9.82;100.00
5753;BME280;2901;42.140;24.760;2023-01-15T11:30:00;99929.63;;;9.91;100.00
5753;BME280;2901;42.140;24.760;2023-01-15T11:32:35;99930.50;;;9.98;100.00
5753;BME280;2901;42.140;24.760;2023-01-15T11:35:18;99930.56;;;10.10;100.00
5753;BME280;2901;42.140;24.760;2023-01-15T11:37:44;99928.81;;;10.06;100.00
5753;BME280;2901;42.140;24.760;2023-01-15T11:40:20;99927.09;;;10.05;100.00
5753;BME280;2901;42.140;24.760;2023-01-15T11:42:49;99916.72;;;9.93;100.00
5753;BME280;2901;42.140;24.760;2023-01-15T11:45:33;99910.66;;;9.86;100.00
5753;BME280;2901;42.140;24.760;2023-01-15T11:48:44;99916.63;;;9.72;100.00
5753;BME280;2901;42.140;24.760;2023-01-15T11:51:31;99913.22;;;9.79;100.00
5753;BME280;2901;42.140;24.760;2023-01-15T11:54:04;99905.41;;;9.64;100.00
5753;BME280;2901;42.140;24.760;2023-01-15T11:56:33;99914.06;;;9.67;100.00
5753;BME280;2901;42.140;24.760;2023-01-15T11:59:08;99898.50;;;9.57;100.00
5753;BME280;2901;42.140;24.760;2023-01-15T12:01:37;99900.22;;;9.56;100.00
5753;BME280;2901;42.140;24.760;2023-01-15T12:04:28;99900.16;;;9.49;100.00
5753;BME280;2901;42.140;24.760;2023-01-15T12:06:55;99899.31;;;9.47;100.00
5753;BME280;2901;42.140;24.760;2023-01-15T12:09:35;99891.50;;;9.36;100.00
5753;BME280;2901;42.140;24.760;2023-01-15T12:26:08;99869.09;;;9.30;100.00
5753;BME280;2901;42.140;24.760;2023-01-15T12:28:51;99864.75;;;9.29;100.00
5753;BME280;2901;42.140;24.760;2023-01-15T12:31:37;99863.06;;;9.30;100.00
5753;BME280;2901;42.140;24.760;2023-01-15T12:34:12;99861.31;;;9.24;100.00
5753;BME280;2901;42.140;24.760;2023-01-15T12:36:47;99860.44;;;9.18;100.00
5753;BME280;2901;42.140;24.760;2023-01-15T12:39:29;99856.06;;;9.12;100.00
5753;BME280;2901;42.140;24.760;2023-01-15T12:41:59;99847.47;;;9.12;100.00
5753;BME280;2901;42.140;24.760;2023-01-15T12:44:51;99850.09;;;9.22;100.00
5753;BME280;2901;42.140;24.760;2023-01-15T12:47:53;99848.38;;;9.26;100.00
5753;BME280;2901;42.140;24.760;2023-01-15T12:50:37;99851.00;;;9.27;100.00
5753;BME280;2901;42.140;24.760;2023-01-15T12:53:10;99846.63;;;9.11;100.00
5753;BME280;2901;42.140;24.760;2023-01-15T12:55:40;99849.22;;;9.14;100.00
5753;BME280;2901;42.140;24.760;2023-01-15T12:58:33;99851.78;;;9.14;100.00
5753;BME280;2901;42.140;24.760;2023-01-15T13:03:59;99844.84;;;9.04;100.00
5753;BME280;2901;42.140;24.760;2023-01-15T13:06:28;99837.09;;;9.04;100.00
5753;BME280;2901;42.140;24.760;2023-01-15T13:09:13;99837.97;;;9.02;100.00
5753;BME280;2901;42.140;24.760;2023-01-15T13:11:42;99838.81;;;9.01;100.00
5753;BME280;2901;42.140;24.760;2023-01-15T13:14:16;99840.50;;;8.97;100.00
5753;BME280;2901;42.140;24.760;2023-01-15T13:22:09;99833.59;;;8.93;100.00
5753;BME280;2901;42.140;24.760;2023-01-15T13:32:46;99828.28;;;8.67;100.00
5753;BME280;2901;42.140;24.760;2023-01-15T13:35:33;99818.78;;;8.63;100.00
5753;BME280;2901;42.140;24.760;2023-01-15T13:38:03;99823.16;;;8.72;100.00
5753;BME280;2901;42.140;24.760;2023-01-15T13:40:42;99824.09;;;8.88;100.00
5753;BME280;2901;42.140;24.760;2023-01-15T13:43:25;99832.75;;;8.96;100.00
5753;BME280;2901;42.140;24.760;2023-01-15T13:45:51;99830.16;;;8.94;100.00
5753;BME280;2901;42.140;24.760;2023-01-15T13:48:28;99826.75;;;8.98;100.00
5753;BME280;2901;42.140;24.760;2023-01-15T13:50:57;99833.63;;;8.95;100.00
5753;BME280;2901;42.140;24.760;2023-01-15T13:53:30;99827.53;;;8.85;100.00
5753;BME280;2901;42.140;24.760;2023-01-15T13:56:04;99820.53;;;8.67;100.00
5753;BME280;2901;42.140;24.760;2023-01-15T13:58:34;99817.13;;;8.71;100.00
5753;BME280;2901;42.140;24.760;2023-01-15T14:01:23;99819.72;;;8.77;100.00
5753;BME280;2901;42.140;24.760;2023-01-15T14:06:42;99815.31;;;8.60;100.00
5753;BME280;2901;42.140;24.760;2023-01-15T14:09:28;99808.47;;;8.65;100.00
5753;BME280;2901;42.140;24.760;2023-01-15T14:17:06;99807.56;;;8.57;100.00
5753;BME280;2901;42.140;24.760;2023-01-15T14:30:35;99798.97;;;8.58;100.00
5753;BME280;2901;42.140;24.760;2023-01-15T14:33:38;99804.91;;;8.46;100.00
5753;BME280;2901;42.140;24.760;2023-01-15T14:36:18;99804.91;;;8.46;100.00
5753;BME280;2901;42.140;24.760;2023-01-15T14:38:51;99803.19;;;8.45;100.00
5753;BME280;2901;42.140;24.760;2023-01-15T14:41:30;99801.38;;;8.37;100.00
5753;BME280;2901;42.140;24.760;2023-01-15T14:43:57;99797.91;;;8.30;100.00
5753;BME280;2901;42.140;24.760;2023-01-15T14:46:33;99794.44;;;8.26;100.00